sensor_id;sensor_type;location;lat;lon;timestamp;temperature;humidity
7216;DHT22;3649;48.798;9.798;2022-10-16T00:01:33;18.20;99.90
7216;DHT22;3649;48.798;9.798;2022-10-16T00:04:01;18.30;99.90
7216;DHT22;3649;48.798;9.798;2022-10-16T00:06:28;18.20;99.90
7216;DHT22;3649;48.798;9.798;2022-10-16T00:08:55;18.20;99.90
7216;DHT22;3649;48.798;9.798;2022-10-16T00:11:28;18.20;99.90
7216;DHT22;3649;48.798;9.798;2022-10-16T00:13:58;18.30;99.90
7216;DHT22;3649;48.798;9.798;2022-10-16T00:16:26;18.30;99.90
7216;DHT22;3649;48.798;9.798;2022-10-16T00:18:53;18.20;99.90
7216;DHT22;3649;48.798;9.798;2022-10-16T00:21:23;18.20;99.90
7216;DHT22;3649;48.798;9.798;2022-10-16T00:23:55;18.30;99.90
7216;DHT22;3649;48.798;9.798;2022-10-16T00:26:23;18.30;99.90
7216;DHT22;3649;48.798;9.798;2022-10-16T00:28:50;18.30;99.90
7216;DHT22;3649;48.798;9.798;2022-10-16T00:31:19;18.20;99.90
7216;DHT22;3649;48.798;9.798;2022-10-16T00:33:46;18.30;99.90
7216;DHT22;3649;48.798;9.798;2022-10-16T00:36:17;18.30;99.90
7216;DHT22;3649;48.798;9.798;2022-10-16T00:38:44;18.30;99.90
7216;DHT22;3649;48.798;9.798;2022-10-16T00:41:14;18.30;99.90
7216;DHT22;3649;48.798;9.798;2022-10-16T00:43:56;18.30;99.90
7216;DHT22;3649;48.798;9.798;2022-10-16T00:46:35;18.30;99.90
7216;DHT22;3649;48.798;9.798;2022-10-16T00:49:09;18.30;99.90
7216;DHT22;3649;48.798;9.798;2022-10-16T00:51:46;18.30;99.90
7216;DHT22;3649;48.798;9.798;2022-10-16T00:54:20;18.30;99.90
7216;DHT22;3649;48.798;9.798;2022-10-16T00:56:48;18.30;99.90
7216;DHT22;3649;48.798;9.798;2022-10-16T00:59:19;18.30;99.90
7216;DHT22;3649;48.798;9.798;2022-10-16T01:01:47;18.30;99.90
7216;DHT22;3649;48.798;9.798;2022-10-16T01:04:14;18.30;99.90
7216;DHT22;3649;48.798;9.798;2022-10-16T01:09:28;18.30;99.90
7216;DHT22;3649;48.798;9.798;2022-10-16T01:14:58;18.20;99.90
7216;DHT22;3649;48.798;9.798;2022-10-16T01:17:45;18.20;99.90
7216;DHT22;3649;48.798;9.798;2022-10-16T01:28:32;18.10;99.90
7216;DHT22;3649;48.798;9.798;2022-10-16T01:31:01;18.20;99.90
7216;DHT22;3649;48.798;9.798;2022-10-16T01:33:39;18.20;99.90
7216;DHT22;3649;48.798;9.798;2022-10-16T01:36:13;18.10;99.90
7216;DHT22;3649;48.798;9.798;2022-10-16T01:38:43;18.10;99.90
7216;DHT22;3649;48.798;9.798;2022-10-16T01:41:33;18.20;99.90
7216;DHT22;3649;48.798;9.798;2022-10-16T01:44:16;18.20;99.90
7216;DHT22;3649;48.798;9.798;2022-10-16T01:46:48;18.20;99.90
7216;DHT22;3649;48.798;9.798;2022-10-16T01:49:17;18.20;99.90
7216;DHT22;3649;48.798;9.798;2022-10-16T01:51:47;18.10;99.90
7216;DHT22;3649;48.798;9.798;2022-10-16T01:54:17;18.10;99.90
7216;DHT22;3649;48.798;9.798;2022-10-16T01:56:46;18.00;99.90
7216;DHT22;3649;48.798;9.798;2022-10-16T01:59:17;18.10;99.90
7216;DHT22;3649;48.798;9.798;2022-10-16T02:01:48;18.10;99.90
7216;DHT22;3649;48.798;9.798;2022-10-16T02:04:21;18.00;99.90
7216;DHT22;3649;48.798;9.798;2022-10-16T02:06:50;18.10;99.90
7216;DHT22;3649;48.798;9.798;2022-10-16T02:09:17;18.00;99.90
7216;DHT22;3649;48.798;9.798;2022-10-16T02:11:44;18.00;99.90
7216;DHT22;3649;48.798;9.798;2022-10-16T02:14:11;18.10;99.90
7216;DHT22;3649;48.798;9.798;2022-10-16T02:16:43;18.00;99.90
7216;DHT22;3649;48.798;9.798;2022-10-16T02:19:14;18.00;99.90
7216;DHT22;3649;48.798;9.798;2022-10-16T02:21:47;18.00;99.90
7216;DHT22;3649;48.798;9.798;2022-10-16T02:24:38;17.90;99.90
7216;DHT22;3649;48.798;9.798;2022-10-16T02:29:48;18.00;99.90
7216;DHT22;3649;48.798;9.798;2022-10-16T02:32:20;18.00;99.90
7216;DHT22;3649;48.798;9.798;2022-10-16T02:34:49;17.90;99.90
7216;DHT22;3649;48.798;9.798;2022-10-16T02:37:17;17.90;99.90
7216;DHT22;3649;48.798;9.798;2022-10-16T02:39:45;17.90;99.90
7216;DHT22;3649;48.798;9.798;2022-10-16T02:42:13;17.80;99.90
7216;DHT22;3649;48.798;9.798;2022-10-16T02:44:40;17.80;99.90
7216;DHT22;3649;48.798;9.798;2022-10-16T02:47:07;17.80;99.90
7216;DHT22;3649;48.798;9.798;2022-10-16T02:49:34;17.90;99.90
7216;DHT22;3649;48.798;9.798;2022-10-16T02:52:01;17.80;99.90
7216;DHT22;3649;48.798;9.798;2022-10-16T02:54:27;17.80;99.90
7216;DHT22;3649;48.798;9.798;2022-10-16T02:56:54;17.80;99.90
7216;DHT22;3649;48.798;9.798;2022-10-16T02:59:21;17.80;99.90
7216;DHT22;3649;48.798;9.798;2022-10-16T03:01:48;17.80;99.90
7216;DHT22;3649;48.798;9.798;2022-10-16T03:04:15;17.80;99.90
7216;DHT22;3649;48.798;9.798;2022-10-16T03:06:42;17.80;99.90
7216;DHT22;3649;48.798;9.798;2022-10-16T03:09:08;17.80;99.90
7216;DHT22;3649;48.798;9.798;2022-10-16T03:11:35;17.70;99.90
7216;DHT22;3649;48.798;9.798;2022-10-16T03:14:02;17.80;99.90
7216;DHT22;3649;48.798;9.798;2022-10-16T03:16:29;17.80;99.90
7216;DHT22;3649;48.798;9.798;2022-10-16T03:18:56;17.80;99.90
7216;DHT22;3649;48.798;9.798;2022-10-16T03:21:23;17.80;99.90
7216;DHT22;3649;48.798;9.798;2022-10-16T03:23:50;17.80;99.90
7216;DHT22;3649;48.798;9.798;2022-10-16T03:26:16;17.70;99.90
7216;DHT22;3649;48.798;9.798;2022-10-16T03:28:43;17.80;99.90
7216;DHT22;3649;48.798;9.798;2022-10-16T03:31:10;17.80;99.90
7216;DHT22;3649;48.798;9.798;2022-10-16T03:33:37;17.80;99.90
7216;DHT22;3649;48.798;9.798;2022-10-16T03:36:04;17.70;99.90
7216;DHT22;3649;48.798;9.798;2022-10-16T03:38:30;17.70;99.90
7216;DHT22;3649;48.798;9.798;2022-10-16T03:40:57;17.70;99.90
7216;DHT22;3649;48.798;9.798;2022-10-16T03:43:24;17.70;99.90
7216;DHT22;3649;48.798;9.798;2022-10-16T03:45:51;17.70;99.90
7216;DHT22;3649;48.798;9.798;2022-10-16T03:48:19;17.70;99.90
7216;DHT22;3649;48.798;9.798;2022-10-16T03:50:45;17.70;99.90
7216;DHT22;3649;48.798;9.798;2022-10-16T03:53:14;17.80;99.90
7216;DHT22;3649;48.798;9.798;2022-10-16T03:55:42;17.80;99.90
7216;DHT22;3649;48.798;9.798;2022-10-16T03:58:09;17.70;99.90
7216;DHT22;3649;48.798;9.798;2022-10-16T04:00:39;17.70;99.90
7216;DHT22;3649;48.798;9.798;2022-10-16T04:03:06;17.80;99.90
7216;DHT22;3649;48.798;9.798;2022-10-16T04:05:32;17.80;99.90
7216;DHT22;3649;48.798;9.798;2022-10-16T04:07:59;17.80;99.90
7216;DHT22;3649;48.798;9.798;2022-10-16T04:10:26;17.80;99.90
7216;DHT22;3649;48.798;9.798;2022-10-16T04:12:53;17.80;99.90
7216;DHT22;3649;48.798;9.798;2022-10-16T04:15:23;17.80;99.90
7216;DHT22;3649;48.798;9.798;2022-10-16T04:17:50;17.80;99.90
7216;DHT22;3649;48.798;9.798;2022-10-16T04:20:17;17.80;99.90
7216;DHT22;3649;48.798;9.798;2022-10-16T04:22:44;17.80;99.90
7216;DHT22;3649;48.798;9.798;2022-10-16T04:25:11;17.80;99.90
7216;DHT22;3649;48.798;9.798;2022-10-16T04:27:38;17.80;99.90
7216;DHT22;3649;48.798;9.798;2022-10-16T04:30:10;17.70;99.90
7216;DHT22;3649;48.798;9.798;2022-10-16T04:32:37;17.80;99.90
7216;DHT22;3649;48.798;9.798;2022-10-16T04:35:04;17.80;99.90
7216;DHT22;3649;48.798;9.798;2022-10-16T04:37:31;17.80;99.90
7216;DHT22;3649;48.798;9.798;2022-10-16T04:39:58;17.70;99.90
7216;DHT22;3649;48.798;9.798;2022-10-16T04:42:25;17.70;99.90
7216;DHT22;3649;48.798;9.798;2022-10-16T04:44:52;17.70;99.90
7216;DHT22;3649;48.798;9.798;2022-10-16T04:47:19;17.80;99.90
7216;DHT22;3649;48.798;9.798;2022-10-16T04:49:45;17.70;99.90
7216;DHT22;3649;48.798;9.798;2022-10-16T04:52:12;17.70;99.90
7216;DHT22;3649;48.798;9.798;2022-10-16T04:54:39;17.70;99.90
7216;DHT22;3649;48.798;9.798;2022-10-16T04:57:06;17.70;99.90
7216;DHT22;3649;48.798;9.798;2022-10-16T04:59:32;17.80;99.90
7216;DHT22;3649;48.798;9.798;2022-10-16T05:01:59;17.70;99.90
7216;DHT22;3649;48.798;9.798;2022-10-16T05:04:26;17.70;99.90
7216;DHT22;3649;48.798;9.798;2022-10-16T05:06:53;17.70;99.90
7216;DHT22;3649;48.798;9.798;2022-10-16T05:09:20;17.70;99.90
7216;DHT22;3649;48.798;9.798;2022-10-16T05:11:46;17.70;99.90
7216;DHT22;3649;48.798;9.798;2022-10-16T05:14:13;17.60;99.90
7216;DHT22;3649;48.798;9.798;2022-10-16T05:16:40;17.60;99.90
7216;DHT22;3649;48.798;9.798;2022-10-16T05:19:07;17.60;99.90
7216;DHT22;3649;48.798;9.798;2022-10-16T05:21:53;17.60;99.90
7216;DHT22;3649;48.798;9.798;2022-10-16T05:24:20;17.60;99.90
7216;DHT22;3649;48.798;9.798;2022-10-16T05:26:47;17.60;99.90
7216;DHT22;3649;48.798;9.798;2022-10-16T05:29:14;17.60;99.90
7216;DHT22;3649;48.798;9.798;2022-10-16T05:31:41;17.70;99.90
7216;DHT22;3649;48.798;9.798;2022-10-16T05:34:08;17.60;99.90
7216;DHT22;3649;48.798;9.798;2022-10-16T05:36:35;17.60;99.90
7216;DHT22;3649;48.798;9.798;2022-10-16T05:39:02;17.60;99.90
7216;DHT22;3649;48.798;9.798;2022-10-16T05:41:29;17.60;99.90
7216;DHT22;3649;48.798;9.798;2022-10-16T05:43:56;17.70;99.90
7216;DHT22;3649;48.798;9.798;2022-10-16T05:46:23;17.60;99.90
7216;DHT22;3649;48.798;9.798;2022-10-16T05:48:52;17.60;99.90
7216;DHT22;3649;48.798;9.798;2022-10-16T05:51:19;17.60;99.90
7216;DHT22;3649;48.798;9.798;2022-10-16T05:53:46;17.60;99.90
7216;DHT22;3649;48.798;9.798;2022-10-16T05:56:13;17.60;99.90
7216;DHT22;3649;48.798;9.798;2022-10-16T05:58:41;17.60;99.90
7216;DHT22;3649;48.798;9.798;2022-10-16T06:01:11;17.60;99.90
7216;DHT22;3649;48.798;9.798;2022-10-16T06:03:39;17.60;99.90
7216;DHT22;3649;48.798;9.798;2022-10-16T06:06:20;17.70;99.90
7216;DHT22;3649;48.798;9.798;2022-10-16T06:08:48;17.70;99.90
7216;DHT22;3649;48.798;9.798;2022-10-16T06:11:29;17.60;99.90
7216;DHT22;3649;48.798;9.798;2022-10-16T06:13:59;17.60;99.90
7216;DHT22;3649;48.798;9.798;2022-10-16T06:16:37;17.60;99.90
7216;DHT22;3649;48.798;9.798;2022-10-16T06:19:04;17.60;99.90
7216;DHT22;3649;48.798;9.798;2022-10-16T06:21:33;17.60;99.90
7216;DHT22;3649;48.798;9.798;2022-10-16T06:24:00;17.60;99.90
7216;DHT22;3649;48.798;9.798;2022-10-16T06:26:29;17.50;99.90
7216;DHT22;3649;48.798;9.798;2022-10-16T06:28:58;17.60;99.90
7216;DHT22;3649;48.798;9.798;2022-10-16T06:31:26;17.60;99.90
7216;DHT22;3649;48.798;9.798;2022-10-16T06:33:55;17.60;99.90
7216;DHT22;3649;48.798;9.798;2022-10-16T06:36:23;17.50;99.90
7216;DHT22;3649;48.798;9.798;2022-10-16T06:38:51;17.60;99.90
7216;DHT22;3649;48.798;9.798;2022-10-16T06:41:20;17.60;99.90
7216;DHT22;3649;48.798;9.798;2022-10-16T06:43:47;17.70;99.90
7216;DHT22;3649;48.798;9.798;2022-10-16T06:46:17;17.70;99.90
7216;DHT22;3649;48.798;9.798;2022-10-16T06:48:44;17.70;99.90
7216;DHT22;3649;48.798;9.798;2022-10-16T06:53:42;17.70;99.90
7216;DHT22;3649;48.798;9.798;2022-10-16T06:56:29;17.70;99.90
7216;DHT22;3649;48.798;9.798;2022-10-16T06:58:58;17.80;99.90
7216;DHT22;3649;48.798;9.798;2022-10-16T07:01:25;17.80;99.90
7216;DHT22;3649;48.798;9.798;2022-10-16T07:03:53;17.80;99.90
7216;DHT22;3649;48.798;9.798;2022-10-16T07:06:22;17.80;99.90
7216;DHT22;3649;48.798;9.798;2022-10-16T07:08:49;17.80;99.90
7216;DHT22;3649;48.798;9.798;2022-10-16T07:11:18;17.90;99.90
7216;DHT22;3649;48.798;9.798;2022-10-16T07:13:47;17.90;99.90
7216;DHT22;3649;48.798;9.798;2022-10-16T07:16:26;18.00;99.90
7216;DHT22;3649;48.798;9.798;2022-10-16T07:18:54;18.00;99.90
7216;DHT22;3649;48.798;9.798;2022-10-16T07:21:28;18.00;99.90
7216;DHT22;3649;48.798;9.798;2022-10-16T07:23:58;18.10;99.90
7216;DHT22;3649;48.798;9.798;2022-10-16T07:26:27;18.10;99.90
7216;DHT22;3649;48.798;9.798;2022-10-16T07:28:54;18.10;99.90
7216;DHT22;3649;48.798;9.798;2022-10-16T07:31:22;18.20;99.90
7216;DHT22;3649;48.798;9.798;2022-10-16T07:33:49;18.30;99.90
7216;DHT22;3649;48.798;9.798;2022-10-16T07:36:17;18.30;99.90
7216;DHT22;3649;48.798;9.798;2022-10-16T07:38:45;18.40;99.90
7216;DHT22;3649;48.798;9.798;2022-10-16T07:41:14;18.50;99.90
7216;DHT22;3649;48.798;9.798;2022-10-16T07:43:46;18.60;99.90
7216;DHT22;3649;48.798;9.798;2022-10-16T07:46:14;18.60;99.90
7216;DHT22;3649;48.798;9.798;2022-10-16T07:48:41;18.60;99.90
7216;DHT22;3649;48.798;9.798;2022-10-16T07:51:13;18.60;99.90
7216;DHT22;3649;48.798;9.798;2022-10-16T07:53:40;18.60;99.90
7216;DHT22;3649;48.798;9.798;2022-10-16T07:56:07;18.60;99.90
7216;DHT22;3649;48.798;9.798;2022-10-16T07:58:35;18.70;99.90
7216;DHT22;3649;48.798;9.798;2022-10-16T08:01:07;18.80;99.90
7216;DHT22;3649;48.798;9.798;2022-10-16T08:03:34;18.80;99.90
7216;DHT22;3649;48.798;9.798;2022-10-16T08:06:02;18.80;99.90
7216;DHT22;3649;48.798;9.798;2022-10-16T08:08:29;18.80;99.90
7216;DHT22;3649;48.798;9.798;2022-10-16T08:10:56;18.80;99.90
7216;DHT22;3649;48.798;9.798;2022-10-16T08:13:23;18.80;99.90
7216;DHT22;3649;48.798;9.798;2022-10-16T08:15:50;18.80;99.90
7216;DHT22;3649;48.798;9.798;2022-10-16T08:18:17;18.90;99.90
7216;DHT22;3649;48.798;9.798;2022-10-16T08:20:44;18.90;99.90
7216;DHT22;3649;48.798;9.798;2022-10-16T08:23:12;18.90;99.90
7216;DHT22;3649;48.798;9.798;2022-10-16T08:25:40;18.90;99.90
7216;DHT22;3649;48.798;9.798;2022-10-16T08:28:09;19.00;99.90
7216;DHT22;3649;48.798;9.798;2022-10-16T08:30:36;19.00;99.90
7216;DHT22;3649;48.798;9.798;2022-10-16T08:33:04;19.00;99.90
7216;DHT22;3649;48.798;9.798;2022-10-16T08:35:30;19.00;99.90
7216;DHT22;3649;48.798;9.798;2022-10-16T08:37:57;19.00;99.90
7216;DHT22;3649;48.798;9.798;2022-10-16T08:40:29;19.00;99.90
7216;DHT22;3649;48.798;9.798;2022-10-16T08:48:50;19.10;99.90
7216;DHT22;3649;48.798;9.798;2022-10-16T08:51:23;19.10;99.90
7216;DHT22;3649;48.798;9.798;2022-10-16T08:53:54;19.10;99.90
7216;DHT22;3649;48.798;9.798;2022-10-16T08:56:22;19.10;99.90
7216;DHT22;3649;48.798;9.798;2022-10-16T08:58:50;19.10;99.90
7216;DHT22;3649;48.798;9.798;2022-10-16T09:01:37;19.20;99.90
7216;DHT22;3649;48.798;9.798;2022-10-16T09:09:49;19.30;99.90
7216;DHT22;3649;48.798;9.798;2022-10-16T09:12:19;19.30;99.90
7216;DHT22;3649;48.798;9.798;2022-10-16T09:25:32;19.50;99.90
7216;DHT22;3649;48.798;9.798;2022-10-16T09:28:00;19.50;99.90
7216;DHT22;3649;48.798;9.798;2022-10-16T09:30:28;19.50;99.90
7216;DHT22;3649;48.798;9.798;2022-10-16T09:32:58;19.50;99.90
7216;DHT22;3649;48.798;9.798;2022-10-16T09:35:42;19.50;99.90
7216;DHT22;3649;48.798;9.798;2022-10-16T09:38:20;19.50;99.90
7216;DHT22;3649;48.798;9.798;2022-10-16T09:40:47;19.60;99.90
7216;DHT22;3649;48.798;9.798;2022-10-16T09:43:34;19.50;99.90
7216;DHT22;3649;48.798;9.798;2022-10-16T09:46:08;19.60;99.90
7216;DHT22;3649;48.798;9.798;2022-10-16T09:48:43;19.60;99.90
7216;DHT22;3649;48.798;9.798;2022-10-16T09:51:22;19.60;99.90
7216;DHT22;3649;48.798;9.798;2022-10-16T09:53:55;19.60;99.90
7216;DHT22;3649;48.798;9.798;2022-10-16T09:56:28;19.60;99.90
7216;DHT22;3649;48.798;9.798;2022-10-16T09:59:08;19.60;99.90
7216;DHT22;3649;48.798;9.798;2022-10-16T10:01:39;19.70;99.90
7216;DHT22;3649;48.798;9.798;2022-10-16T10:04:07;19.70;99.90
7216;DHT22;3649;48.798;9.798;2022-10-16T10:06:56;19.70;99.90
7216;DHT22;3649;48.798;9.798;2022-10-16T10:09:31;19.70;99.90
7216;DHT22;3649;48.798;9.798;2022-10-16T10:12:02;19.70;99.90
7216;DHT22;3649;48.798;9.798;2022-10-16T10:14:38;19.80;99.90
7216;DHT22;3649;48.798;9.798;2022-10-16T10:25:26;19.90;99.90
7216;DHT22;3649;48.798;9.798;2022-10-16T10:33:43;19.90;99.90
7216;DHT22;3649;48.798;9.798;2022-10-16T10:50:29;20.00;99.90
7216;DHT22;3649;48.798;9.798;2022-10-16T10:53:23;20.10;99.90
7216;DHT22;3649;48.798;9.798;2022-10-16T11:01:55;20.10;99.90
7216;DHT22;3649;48.798;9.798;2022-10-16T11:04:38;20.10;99.90
7216;DHT22;3649;48.798;9.798;2022-10-16T11:07:22;20.20;99.90
7216;DHT22;3649;48.798;9.798;2022-10-16T11:09:59;20.20;99.90
7216;DHT22;3649;48.798;9.798;2022-10-16T11:12:36;20.20;99.90
7216;DHT22;3649;48.798;9.798;2022-10-16T11:15:15;20.20;99.90
7216;DHT22;3649;48.798;9.798;2022-10-16T11:18:20;20.20;99.90
7216;DHT22;3649;48.798;9.798;2022-10-16T11:20:54;20.20;99.90
7216;DHT22;3649;48.798;9.798;2022-10-16T11:23:39;20.30;99.90
7216;DHT22;3649;48.798;9.798;2022-10-16T11:26:22;20.30;99.90
7216;DHT22;3649;48.798;9.798;2022-10-16T11:28:55;20.30;99.90
7216;DHT22;3649;48.798;9.798;2022-10-16T11:31:40;20.30;99.90
7216;DHT22;3649;48.798;9.798;2022-10-16T11:34:34;20.40;99.90
7216;DHT22;3649;48.798;9.798;2022-10-16T11:37:14;20.50;99.90
7216;DHT22;3649;48.798;9.798;2022-10-16T11:39:44;20.50;99.90
7216;DHT22;3649;48.798;9.798;2022-10-16T11:45:03;20.60;99.90
7216;DHT22;3649;48.798;9.798;2022-10-16T11:47:44;20.60;99.90
7216;DHT22;3649;48.798;9.798;2022-10-16T11:53:42;20.60;99.90
7216;DHT22;3649;48.798;9.798;2022-10-16T11:56:22;20.70;99.90
7216;DHT22;3649;48.798;9.798;2022-10-16T11:59:02;20.70;99.90
7216;DHT22;3649;48.798;9.798;2022-10-16T12:07:02;20.70;99.90
7216;DHT22;3649;48.798;9.798;2022-10-16T12:09:32;20.70;99.90
7216;DHT22;3649;48.798;9.798;2022-10-16T12:12:00;20.70;99.90
7216;DHT22;3649;48.798;9.798;2022-10-16T12:20:12;20.80;99.90
7216;DHT22;3649;48.798;9.798;2022-10-16T12:22:56;20.80;99.90
7216;DHT22;3649;48.798;9.798;2022-10-16T12:25:27;20.80;99.90
7216;DHT22;3649;48.798;9.798;2022-10-16T12:28:07;20.80;99.90
7216;DHT22;3649;48.798;9.798;2022-10-16T12:30:52;20.80;99.90
7216;DHT22;3649;48.798;9.798;2022-10-16T12:33:29;20.70;99.90
7216;DHT22;3649;48.798;9.798;2022-10-16T12:35:59;20.80;99.90
7216;DHT22;3649;48.798;9.798;2022-10-16T12:41:05;20.90;99.90
7216;DHT22;3649;48.798;9.798;2022-10-16T12:43:45;21.00;99.90
7216;DHT22;3649;48.798;9.798;2022-10-16T12:48:42;21.00;99.90
7216;DHT22;3649;48.798;9.798;2022-10-16T12:59:13;20.90;99.90
7216;DHT22;3649;48.798;9.798;2022-10-16T13:07:38;20.80;99.90
7216;DHT22;3649;48.798;9.798;2022-10-16T13:10:39;20.80;99.90
7216;DHT22;3649;48.798;9.798;2022-10-16T13:29:53;20.90;99.90
7216;DHT22;3649;48.798;9.798;2022-10-16T13:32:22;20.90;99.90
7216;DHT22;3649;48.798;9.798;2022-10-16T13:34:49;20.90;99.90
7216;DHT22;3649;48.798;9.798;2022-10-16T13:37:21;20.90;99.90
7216;DHT22;3649;48.798;9.798;2022-10-16T13:39:49;20.90;99.90
7216;DHT22;3649;48.798;9.798;2022-10-16T13:42:23;20.90;99.90
7216;DHT22;3649;48.798;9.798;2022-10-16T13:44:55;20.90;99.90
7216;DHT22;3649;48.798;9.798;2022-10-16T13:47:25;20.90;99.90
7216;DHT22;3649;48.798;9.798;2022-10-16T13:50:19;20.90;99.90
7216;DHT22;3649;48.798;9.798;2022-10-16T13:52:46;20.90;99.90
7216;DHT22;3649;48.798;9.798;2022-10-16T13:55:17;20.90;99.90
7216;DHT22;3649;48.798;9.798;2022-10-16T13:57:45;20.90;99.90
7216;DHT22;3649;48.798;9.798;2022-10-16T14:00:19;20.90;99.90
7216;DHT22;3649;48.798;9.798;2022-10-16T14:02:51;20.90;99.90
7216;DHT22;3649;48.798;9.798;2022-10-16T14:05:19;20.90;99.90
7216;DHT22;3649;48.798;9.798;2022-10-16T14:07:49;20.90;99.90
7216;DHT22;3649;48.798;9.798;2022-10-16T14:10:25;20.90;99.90
7216;DHT22;3649;48.798;9.798;2022-10-16T14:13:01;20.90;99.90
7216;DHT22;3649;48.798;9.798;2022-10-16T14:15:31;20.90;99.90
7216;DHT22;3649;48.798;9.798;2022-10-16T14:17:59;20.90;99.90
7216;DHT22;3649;48.798;9.798;2022-10-16T14:20:28;20.90;99.90
7216;DHT22;3649;48.798;9.798;2022-10-16T14:25:30;20.90;99.90
7216;DHT22;3649;48.798;9.798;2022-10-16T14:36:18;20.80;99.90
7216;DHT22;3649;48.798;9.798;2022-10-16T14:39:06;20.80;99.90
7216;DHT22;3649;48.798;9.798;2022-10-16T14:41:44;20.80;99.90
7216;DHT22;3649;48.798;9.798;2022-10-16T14:44:12;20.90;99.90
7216;DHT22;3649;48.798;9.798;2022-10-16T14:46:41;20.90;99.90
7216;DHT22;3649;48.798;9.798;2022-10-16T14:51:37;20.90;99.90
7216;DHT22;3649;48.798;9.798;2022-10-16T14:54:04;20.90;99.90
7216;DHT22;3649;48.798;9.798;2022-10-16T14:56:50;20.90;99.90
7216;DHT22;3649;48.798;9.798;2022-10-16T14:59:29;20.80;99.90
7216;DHT22;3649;48.798;9.798;2022-10-16T15:01:56;20.80;99.90
7216;DHT22;3649;48.798;9.798;2022-10-16T15:04:23;20.80;99.90
7216;DHT22;3649;48.798;9.798;2022-10-16T15:06:50;20.80;99.90
7216;DHT22;3649;48.798;9.798;2022-10-16T15:09:17;20.80;99.90
7216;DHT22;3649;48.798;9.798;2022-10-16T15:11:44;20.70;99.90
7216;DHT22;3649;48.798;9.798;2022-10-16T15:14:12;20.70;99.90
7216;DHT22;3649;48.798;9.798;2022-10-16T15:16:40;20.70;99.90
7216;DHT22;3649;48.798;9.798;2022-10-16T15:19:07;20.70;99.90
7216;DHT22;3649;48.798;9.798;2022-10-16T15:21:34;20.70;99.90
7216;DHT22;3649;48.798;9.798;2022-10-16T15:24:01;20.70;99.90
7216;DHT22;3649;48.798;9.798;2022-10-16T15:26:29;20.70;99.90
7216;DHT22;3649;48.798;9.798;2022-10-16T15:28:56;20.70;99.90
7216;DHT22;3649;48.798;9.798;2022-10-16T15:31:23;20.70;99.90
7216;DHT22;3649;48.798;9.798;2022-10-16T15:33:52;20.70;99.90
7216;DHT22;3649;48.798;9.798;2022-10-16T15:36:37;20.70;99.90
7216;DHT22;3649;48.798;9.798;2022-10-16T15:39:17;20.70;99.90
7216;DHT22;3649;48.798;9.798;2022-10-16T15:41:46;20.70;99.90
7216;DHT22;3649;48.798;9.798;2022-10-16T15:44:18;20.70;99.90
7216;DHT22;3649;48.798;9.798;2022-10-16T15:46:45;20.60;99.90
7216;DHT22;3649;48.798;9.798;2022-10-16T15:49:13;20.60;99.90
7216;DHT22;3649;48.798;9.798;2022-10-16T15:51:41;20.70;99.90
7216;DHT22;3649;48.798;9.798;2022-10-16T15:54:09;20.60;99.90
7216;DHT22;3649;48.798;9.798;2022-10-16T15:56:35;20.60;99.90
7216;DHT22;3649;48.798;9.798;2022-10-16T15:59:04;20.60;99.90
7216;DHT22;3649;48.798;9.798;2022-10-16T16:01:35;20.60;99.90
7216;DHT22;3649;48.798;9.798;2022-10-16T16:04:02;20.60;99.90
7216;DHT22;3649;48.798;9.798;2022-10-16T16:06:41;20.60;99.90
7216;DHT22;3649;48.798;9.798;2022-10-16T16:09:12;20.60;99.90
7216;DHT22;3649;48.798;9.798;2022-10-16T16:11:40;20.70;99.90
7216;DHT22;3649;48.798;9.798;2022-10-16T16:14:10;20.60;99.90
7216;DHT22;3649;48.798;9.798;2022-10-16T16:16:38;20.70;99.90
7216;DHT22;3649;48.798;9.798;2022-10-16T16:19:05;20.70;99.90
7216;DHT22;3649;48.798;9.798;2022-10-16T16:21:37;20.60;99.90
7216;DHT22;3649;48.798;9.798;2022-10-16T16:24:05;20.60;99.90
7216;DHT22;3649;48.798;9.798;2022-10-16T16:26:36;20.60;99.90
7216;DHT22;3649;48.798;9.798;2022-10-16T16:29:06;20.60;99.90
7216;DHT22;3649;48.798;9.798;2022-10-16T16:31:33;20.60;99.90
7216;DHT22;3649;48.798;9.798;2022-10-16T16:34:01;20.60;99.90
7216;DHT22;3649;48.798;9.798;2022-10-16T16:36:29;20.60;99.90
7216;DHT22;3649;48.798;9.798;2022-10-16T16:38:56;20.60;99.90
7216;DHT22;3649;48.798;9.798;2022-10-16T16:41:26;20.60;99.90
7216;DHT22;3649;48.798;9.798;2022-10-16T16:43:54;20.50;99.90
7216;DHT22;3649;48.798;9.798;2022-10-16T16:46:22;20.50;99.90
7216;DHT22;3649;48.798;9.798;2022-10-16T16:48:49;20.50;99.90
7216;DHT22;3649;48.798;9.798;2022-10-16T16:51:21;20.50;99.90
7216;DHT22;3649;48.798;9.798;2022-10-16T16:53:50;20.50;99.90
7216;DHT22;3649;48.798;9.798;2022-10-16T16:56:18;20.50;99.90
7216;DHT22;3649;48.798;9.798;2022-10-16T16:58:46;20.50;99.90
7216;DHT22;3649;48.798;9.798;2022-10-16T17:01:13;20.50;99.90
7216;DHT22;3649;48.798;9.798;2022-10-16T17:03:46;20.50;99.90
7216;DHT22;3649;48.798;9.798;2022-10-16T17:06:16;20.50;99.90
7216;DHT22;3649;48.798;9.798;2022-10-16T17:08:47;20.40;99.90
7216;DHT22;3649;48.798;9.798;2022-10-16T17:11:20;20.40;99.90
7216;DHT22;3649;48.798;9.798;2022-10-16T17:13:49;20.40;99.90
7216;DHT22;3649;48.798;9.798;2022-10-16T17:16:24;20.40;99.90
7216;DHT22;3649;48.798;9.798;2022-10-16T17:18:52;20.40;99.90
7216;DHT22;3649;48.798;9.798;2022-10-16T17:21:20;20.40;99.90
7216;DHT22;3649;48.798;9.798;2022-10-16T17:23:47;20.40;99.90
7216;DHT22;3649;48.798;9.798;2022-10-16T17:26:15;20.40;99.90
7216;DHT22;3649;48.798;9.798;2022-10-16T17:28:43;20.40;99.90
7216;DHT22;3649;48.798;9.798;2022-10-16T17:31:15;20.40;99.90
7216;DHT22;3649;48.798;9.798;2022-10-16T17:33:42;20.40;99.90
7216;DHT22;3649;48.798;9.798;2022-10-16T17:36:10;20.30;99.90
7216;DHT22;3649;48.798;9.798;2022-10-16T17:38:37;20.30;99.90
7216;DHT22;3649;48.798;9.798;2022-10-16T17:41:31;20.20;99.90
7216;DHT22;3649;48.798;9.798;2022-10-16T17:43:58;20.30;99.90
7216;DHT22;3649;48.798;9.798;2022-10-16T17:46:25;20.20;99.90
7216;DHT22;3649;48.798;9.798;2022-10-16T17:48:53;20.30;99.90
7216;DHT22;3649;48.798;9.798;2022-10-16T17:51:23;22.00;99.90
7216;DHT22;3649;48.798;9.798;2022-10-16T17:53:52;20.20;99.90
7216;DHT22;3649;48.798;9.798;2022-10-16T17:56:19;20.20;99.90
7216;DHT22;3649;48.798;9.798;2022-10-16T17:58:52;20.20;99.90
7216;DHT22;3649;48.798;9.798;2022-10-16T18:01:21;20.20;99.90
7216;DHT22;3649;48.798;9.798;2022-10-16T18:04:01;20.20;99.90
7216;DHT22;3649;48.798;9.798;2022-10-16T18:06:30;20.20;99.90
7216;DHT22;3649;48.798;9.798;2022-10-16T18:08:58;20.20;99.90
7216;DHT22;3649;48.798;9.798;2022-10-16T18:11:26;20.10;99.90
7216;DHT22;3649;48.798;9.798;2022-10-16T18:13:54;20.10;99.90
7216;DHT22;3649;48.798;9.798;2022-10-16T18:16:22;20.10;99.90
7216;DHT22;3649;48.798;9.798;2022-10-16T18:18:50;20.10;99.90
7216;DHT22;3649;48.798;9.798;2022-10-16T18:21:18;20.10;99.90
7216;DHT22;3649;48.798;9.798;2022-10-16T18:23:45;20.10;99.90
7216;DHT22;3649;48.798;9.798;2022-10-16T18:26:18;20.00;99.90
7216;DHT22;3649;48.798;9.798;2022-10-16T18:28:45;20.00;99.90
7216;DHT22;3649;48.798;9.798;2022-10-16T18:31:14;20.00;99.90
7216;DHT22;3649;48.798;9.798;2022-10-16T18:33:42;19.90;99.90
7216;DHT22;3649;48.798;9.798;2022-10-16T18:36:19;19.90;99.90
7216;DHT22;3649;48.798;9.798;2022-10-16T18:38:47;19.90;99.90
7216;DHT22;3649;48.798;9.798;2022-10-16T18:41:14;19.90;99.90
7216;DHT22;3649;48.798;9.798;2022-10-16T18:43:41;19.90;99.90
7216;DHT22;3649;48.798;9.798;2022-10-16T18:46:14;19.90;99.90